ADDS METAR Data INFO
IDs: Format: Raw Decoded Include TAF

Data at: 0304 UTC 21 Oct 2017

PADU 210246Z 34024G31KT 10SM FEW017 BKN026 OVC050 04/01 A2930 RMK AO2 PK WND 33033/0221 RAE46SNE46 0BS PK WND 32040/41 VCSH NE-SE BLK WTR NE-E AND NW LAST CS P0000
PADU 210203Z 33022G28KT 10SM -SNRA SCT015 OVC022 04/00 A2928 RMK AO2 PK WND 32028/0157 0BS PK WND 35038/49 BLK WTR NE-E AND NW CS P0000
PADU 210151Z 36018G24KT 340V040 8SM -RA BKN006 BKN015 OVC022 04/00 A2927 RMK AO2 PK WND 01030/0123 SNE51 OBS PK WND 35038/49 CIG LWR NW BLK WTR NE-E AND NW CS P0003
PADU 210119Z 35014KT 6SM -SNRA BR BKN006 OVC015 03/01 A2927 RMK AO2 PK WND 36030/0109 OBS PK WND 35048/0059 VIS NE 4 CIG LWR NW BLK WTR NE-E AND NW CS P0002
PADU 210059Z 36012G28KT 330V060 6SM -SNRA BR SCT008 BKN012 OVC017 03/01 A2925 RMK AO2 OBS PK WND 35048/0059 BLK WTR NE-E AND NW CS P0000
PADU 210056Z 36020G28KT 6SM -SNRA BR SCT008 BKN012 OVC017 03/01 A2925 RMK AO2 PK WND 01032/0043 SNB56 SLP911 OBS PK WND 04040/44 BLK WTR NE-E AND NW CS P0004 T00330011
PADU 210051Z 33022G32KT 6SM -RA BR SCT008 BKN012 OVC017 03/01 A2925 RMK AO2 PK WND 01032/0043 OBS PK WND 04040/44 BLK WTR NE-E AND NW CS P0004
PADU 210013Z 14007G23KT 210V180 10SM -RA BR OVC015 03/01 A2923 RMK AO2 PK WND 35028/2359 P0001
PADU 202356Z 35019G32KT 320V050 6SM -RA BR OVC013 03/01 A2921 RMK AO2 PK WND 36033/2342 SLP895 OBS PK WND 04042/2319 WND DIR 320V080 BLK WTR NE-E AND NW CS P0006 60032 T00330011 10056 20033 51031
PADU 202350Z 35019G33KT 6SM -RA BR OVC013 03/01 A2922 RMK AO2 PK WND 36033/2342 OBS PK WND 04042/2319 WND DIR 320V080 BLK WTR NE-E AND NW CS P0006
PADU 202320Z 35013G26KT 310V050 6SM -RA BR OVC013 04/02 A2920 RMK AO2 PK WND 12026/2318 OBS PK WND 04042/2319 BLK WTR NE-E AND NW CS P0004
PADU 202232Z 04011G31KT 4SM RA BR OVC013 03/01 A2918 RMK AO2 PK WND 05039/2220 BLK WTR NE-E AND NW CS P0011
PADU 202149Z 05017G26KT 6SM -RA BR OVC013 04/02 A2915 RMK AO2 PK WND 04030/2133 BLK WTR NE-E CS P0004
PADU 202046Z 03019G28KT 8SM -RA BKN013 OVC018 04/02 A2911 RMK AO2 PK WND 03028/2044 BLK WTR NE-E CS P0001
PADU 201956Z 03015G25KT 6SM -RA BR SCT008 BKN013 OVC018 04/02 A2908 RMK AO2 SLP851 BLK WTR NE-E CS P0005 T00440022
PADU 201949Z 03020G25KT 6SM -RA BR SCT008 BKN013 OVC018 04/02 A2908 RMK AO2 BLK WTR NE-E CS P0004
PADU 201856Z 04006KT 10SM -RA SCT008 OVC013 06/03 A2905 RMK AO2 RAB05 SLP843 CS P0001 T00560028
PADU 201759Z 06008KT 10SM SCT008 OVC013 06/03 A2903 RMK AO2 CS
PADU 201756Z 07008KT 10SM SCT008 OVC013 06/03 A2903 RMK AO2 RAE48 SLP835 CS P0007 60013 T00560033 10056 20044 53001
PADU 201751Z 08012KT 10SM SCT008 OVC013 06/04 A2903 RMK AO2 RAE48 CS P0007
PADU 201732Z 02005KT 10SM -RA SCT008 OVC013 04/04 A2903 RMK AO2 CS P0007
PADU 201656Z 00000KT 6SM -RA BR OVC008 04/04 A2902 RMK AO2 SLP832 CS P0004 T00440039
PADU 201647Z 30005KT 6SM -RA BR OVC008 04/03 A2902 RMK AO2 CS P0002
PADU 201619Z 00000KT 6SM -RA BR OVC008 04/03 A2902 RMK AO2 CS P0000
PADU 201556Z 00000KT 10SM -RA OVC008 05/03 A2902 RMK AO2 RAB51 SLP831 CS P0000 T00500033
PADU 201451Z 00000KT 10SM OVC008 04/03 A2903 RMK AO2 RAE50 CIG 006V010 CS P0001
PADU 201440Z 00000KT 5SM -RA BR OVC008 04/03 A2904 RMK AO2 CS P0001
PADU 201359Z 23005KT 10SM -RA OVC010 04/03 A2905 RMK AO2 CIG 006V011 CS P0000
PADU 201356Z 24006KT 10SM -RA BR OVC010 04/03 A2905 RMK AO2 SLP840 CS P0001 T00440033
PADU 201351Z 26007KT 10SM -RA BR OVC010 04/03 A2905 RMK AO2 CS P0001
PADU 201323Z AUTO 26008KT 10SM -RA BR BKN010 OVC017 04/03 A2906 RMK AO2 CIG 008V012 P0000
PADU 201313Z AUTO 27011KT 6SM -RA BR BKN008 OVC017 04/03 A2907 RMK AO2 CIG 008V011 P0000
PADU 201256Z AUTO VRB03KT 9SM -RA BR OVC015 05/04 A2907 RMK AO2 SLP849 P0000 T00500039
PADU 201249Z AUTO 05007KT 10SM -RA BR OVC015 05/03 A2907 RMK AO2 P0000
PADU 201222Z AUTO 06010G17KT 6SM -RA BR OVC013 05/03 A2909 RMK AO2 P0000
PADU 201056Z AUTO 00000KT 10SM -RA BR OVC019 04/02 A2915 RMK AO2 SLP874 P0000 T00440017
PADU 200956Z AUTO 14008G15KT 090V150 10SM -RA BR OVC017 04/02 A2918 RMK AO2 SLP887 P0001 T00440017
PADU 200856Z AUTO 14011KT 10SM -RA BR OVC019 04/02 A2922 RMK AO2 SLP898 P0001 60004 T00440017 400610022 56033
PADU 200756Z AUTO 11013G23KT 10SM -RA BR OVC019 04/02 A2924 RMK AO2 SLP907 P0002 T00440017
PADU 200556Z AUTO 12012G20KT 10SM -RA BR OVC019 04/01 A2931 RMK AO2 SLP930 P0001 60007 T00440011 10061 20039 56039
PADU 200456Z AUTO 10011KT 10SM -RA BR BKN017 OVC022 04/02 A2935 RMK AO2 SLP943 P0000 T00390017
PADU 200356Z AUTO 10007KT 10SM -RA BR OVC019 04/01 A2939 RMK AO2 SLP956 P0002 T00390011
PADU 200311Z AUTO 13008KT 10SM -RA BR SCT021 BKN028 OVC035 04/01 A2942 RMK AO2 P0001
PADU 200256Z AUTO 14008KT 6SM -RA BR BKN014 OVC020 04/01 A2943 RMK AO2 SLP969 CIG LWR NE LAST CS P0003 60004 T00390006 58042
PADU 200205Z 12010KT 6SM -RA BR SCT015 BKN021 OVC027 04/02 A2947 RMK AO2 CS P0001
PADU 200156Z 10009KT 7SM -RA BKN015 OVC021 04/02 A2947 RMK AO2 SLP985 CS P0001 T00440017
PADU 200152Z 10007KT 7SM -RA BKN015 OVC021 04/01 A2947 RMK AO2 CS P0001
PADU 200133Z 10011KT 7SM -RA SCT015 BKN022 OVC029 05/01 A2948 RMK AO2 CS P0001
PADU 200056Z 12009KT 8SM -RA SCT016 BKN026 OVC032 05/01 A2952 RMK AO2 RAB25 SLP000 CS P0000 T00500011
PADU 200052Z 11008KT 8SM -RA SCT016 BKN026 OVC032 05/01 A2952 RMK AO2 RAB25 CS P0000
PADU 200044Z 10011G16KT 8SM -RA SCT016 BKN026 OVC032 05/01 A2953 RMK AO2 RAB25 CS P0000
PADU 200033Z 11010KT 8SM -RA SCT026 BKN032 OVC042 05/01 A2953 RMK AO2 RAB25 CS P0000
PADU 192256Z 12010G16KT 10SM SCT031 BKN040 OVC049 06/M01 A2958 RMK AO2 SLP022 CS T00611006
PADU 192156Z 14010KT 10SM FEW028 BKN037 06/00 A2963 RMK AO2 SLP039 CS T00560000
PADU 192151Z 13007KT 10SM FEW028 OVC037 06/01 A2964 RMK AO2 CS
PADU 192056Z 10006KT 10SM SCT028 06/00 A2968 RMK AO2 SLP054 CS T00560000 56036
PADU 191956Z 17005KT 10SM CLR 04/00 A2972 RMK AO2 SLP069 CS T00440000
PADU 191951Z 18004KT 8SM CLR 04/00 A2972 RMK AO2 CS
PADU 191856Z 00000KT 10SM CLR 03/M01 A2974 RMK AO2 SLP076 CS T00281011
PADU 191818Z 00000KT 10SM SCT030 OVC140 03/M01 A2977 RMK AO2 CS
PADU 191714Z 21003KT 10SM SCT030 03/M01 A2981 RMK AO2 CS
PADU 191656Z VRB03KT 10SM SCT030 03/M01 A2982 RMK AO2 SLP103 T00281006